Time;durP1;ratioP1;P1;durP2;ratioP2;P2;SDS_P1;SDS_P2;PMS_P1;PMS_P2;Temp;Humidity;BMP_temperature;BMP_pressure;BME280_temperature;BME280_humidity;BME280_pressure;Samples;Min_cycle;Max_cycle;Signal;HPM_P1;HPM_P2
2023/02/11 00:00:10;;;;;;;2.67;1.10;;;;;;;;;;5075845;28;20051;-63
2023/02/11 00:02:40;;;;;;;1.85;1.13;;;;;;;;;;5076291;28;20052;-63
2023/02/11 00:05:10;;;;;;;4.45;1.35;;;;;;;;;;5094973;28;20503;-64
2023/02/11 00:07:40;;;;;;;3.15;1.30;;;;;;;;;;5094815;28;20040;-64
2023/02/11 00:10:10;;;;;;;2.72;1.13;;;;;;;;;;5094701;28;20055;-64
2023/02/11 00:12:41;;;;;;;6.43;1.73;;;;;;;;;;5094495;28;20492;-63
2023/02/11 00:15:11;;;;;;;2.97;1.15;;;;;;;;;;5094433;28;20044;-64
2023/02/11 00:17:41;;;;;;;6.00;1.35;;;;;;;;;;5094430;28;20044;-64
2023/02/11 00:20:11;;;;;;;3.88;1.27;;;;;;;;;;5094418;28;20044;-63
2023/02/11 00:22:42;;;;;;;4.05;1.23;;;;;;;;;;5094449;28;20052;-64
2023/02/11 00:25:12;;;;;;;2.67;1.45;;;;;;;;;;5026704;28;20400;-64
2023/02/11 00:27:42;;;;;;;3.10;1.10;;;;;;;;;;5058315;28;20052;-64
2023/02/11 00:30:13;;;;;;;2.30;1.05;;;;;;;;;;5057185;28;20051;-64
2023/02/11 00:32:43;;;;;;;6.40;1.70;;;;;;;;;;5057597;28;20558;-64
2023/02/11 00:35:14;;;;;;;2.70;1.50;;;;;;;;;;5090727;28;20056;-63
2023/02/11 00:37:44;;;;;;;5.90;1.50;;;;;;;;;;5058056;28;20048;-64
2023/02/11 00:40:14;;;;;;;2.90;1.33;;;;;;;;;;5090515;28;20044;-64
2023/02/11 00:42:45;;;;;;;3.30;1.50;;;;;;;;;;5065804;28;20053;-64
2023/02/11 00:45:15;;;;;;;6.07;1.77;;;;;;;;;;5001000;28;20049;-64
2023/02/11 00:47:45;;;;;;;3.67;1.98;;;;;;;;;;5016808;28;20056;-64
2023/02/11 00:50:15;;;;;;;4.68;2.53;;;;;;;;;;5017053;28;20060;-65
2023/02/11 00:52:45;;;;;;;6.70;2.30;;;;;;;;;;5010365;28;20058;-64
2023/02/11 00:55:16;;;;;;;5.97;2.22;;;;;;;;;;4974469;28;20050;-64
2023/02/11 00:57:46;;;;;;;6.40;2.05;;;;;;;;;;4943484;28;20502;-64
2023/02/11 01:00:17;;;;;;;6.65;2.40;;;;;;;;;;4990593;28;20054;-64
2023/02/11 01:02:47;;;;;;;5.10;1.90;;;;;;;;;;4990841;28;20059;-64
2023/02/11 01:05:18;;;;;;;5.38;1.83;;;;;;;;;;4954810;28;20054;-64
2023/02/11 01:07:48;;;;;;;3.72;1.88;;;;;;;;;;4987083;28;20123;-64
2023/02/11 01:10:18;;;;;;;6.85;2.00;;;;;;;;;;4971023;28;20054;-63
2023/02/11 01:12:48;;;;;;;7.75;2.10;;;;;;;;;;4987545;28;20055;-64
2023/02/11 01:15:19;;;;;;;3.67;1.67;;;;;;;;;;4990283;28;20050;-64
2023/02/11 01:17:51;;;;;;;10.30;2.60;;;;;;;;;;4951527;29;20047;-64
2023/02/11 01:20:25;;;;;;;5.97;1.83;;;;;;;;;;4951742;29;20758;-64
2023/02/11 01:22:57;;;;;;;3.92;1.70;;;;;;;;;;4951352;29;20055;-64
2023/02/11 01:25:27;;;;;;;4.03;1.90;;;;;;;;;;4951501;29;20062;-64
2023/02/11 01:27:57;;;;;;;6.67;1.70;;;;;;;;;;4840424;29;2318386;-63
2023/02/11 01:30:29;;;;;;;;;;;;;;;;;;4944103;29;20552;-64
2023/02/11 01:32:59;;;;;;;2.83;1.40;;;;;;;;;;4946304;28;20365;-64
2023/02/11 01:35:30;;;;;;;4.60;1.38;;;;;;;;;;4923676;28;20458;-64
2023/02/11 01:38:00;;;;;;;4.75;1.15;;;;;;;;;;4971506;28;20063;-63
2023/02/11 01:40:30;;;;;;;3.30;1.33;;;;;;;;;;4971352;28;20058;-64
2023/02/11 01:43:02;;;;;;;3.35;1.48;;;;;;;;;;4926090;29;20051;-64
2023/02/11 01:46:03;;;;;;;3.92;1.60;;;;;;;;;;4933455;29;20067;-64
2023/02/11 01:48:39;;;;;;;6.50;1.58;;;;;;;;;;4948073;29;20047;-64
2023/02/11 01:51:27;;;;;;;7.03;1.63;;;;;;;;;;4932504;29;20052;-64
2023/02/11 01:59:46;;;;;;;4.75;1.45;;;;;;;;;;4958212;28;20064;-64
2023/02/11 02:02:22;;;;;;;3.25;1.42;;;;;;;;;;4913206;29;20044;-64
2023/02/11 02:05:00;;;;;;;4.07;1.52;;;;;;;;;;4932130;29;20389;-64
2023/02/11 02:07:40;;;;;;;7.85;2.08;;;;;;;;;;4928245;29;20429;-64
2023/02/11 02:10:16;;;;;;;3.75;1.67;;;;;;;;;;4932210;29;20056;-64
2023/02/11 02:12:46;;;;;;;4.05;1.90;;;;;;;;;;4916161;29;20064;-64
2023/02/11 02:15:23;;;;;;;4.65;1.85;;;;;;;;;;4948150;29;20058;-64
2023/02/11 02:18:32;;;;;;;5.97;2.40;;;;;;;;;;4946767;28;20088;-64
2023/02/11 02:21:49;;;;;;;7.85;1.98;;;;;;;;;;4962065;28;20055;-64
2023/02/11 02:24:31;;;;;;;4.72;1.75;;;;;;;;;;4951309;29;20058;-64
2023/02/11 02:27:26;;;;;;;4.72;1.60;;;;;;;;;;4919400;29;20055;-64
2023/02/11 02:30:10;;;;;;;7.38;1.60;;;;;;;;;;4932946;29;20067;-65
2023/02/11 02:33:02;;;;;;;6.20;1.98;;;;;;;;;;4934274;29;20054;-64
2023/02/11 02:36:00;;;;;;;4.82;1.75;;;;;;;;;;4951132;29;20407;-64
2023/02/11 02:38:40;;;;;;;4.45;1.92;;;;;;;;;;4951021;29;20047;-64
2023/02/11 02:41:31;;;;;;;7.85;2.22;;;;;;;;;;4970561;28;20050;-65
2023/02/11 02:44:02;;;;;;;5.82;2.20;;;;;;;;;;4960802;28;20410;-64
2023/02/11 02:46:33;;;;;;;5.22;1.73;;;;;;;;;;4976869;28;20058;-64
2023/02/11 02:49:11;;;;;;;4.40;2.40;;;;;;;;;;5032075;28;20057;-64
2023/02/11 02:51:50;;;;;;;5.85;2.20;;;;;;;;;;5015820;28;20053;-64
2023/02/11 02:54:47;;;;;;;5.93;2.25;;;;;;;;;;4941365;28;20057;-64
2023/02/11 02:58:01;;;;;;;8.25;2.20;;;;;;;;;;4956866;28;20498;-64
2023/02/11 03:00:33;;;;;;;3.65;1.88;;;;;;;;;;5010470;28;20429;-64
2023/02/11 03:03:32;;;;;;;6.47;1.90;;;;;;;;;;5015612;28;20496;-64
2023/02/11 03:06:09;;;;;;;5.82;1.80;;;;;;;;;;4999243;28;20061;-63
2023/02/11 03:08:45;;;;;;;3.13;1.58;;;;;;;;;;5048678;28;20057;-63
2023/02/11 03:11:18;;;;;;;5.95;1.50;;;;;;;;;;5048641;28;20045;-64
2023/02/11 03:13:50;;;;;;;7.00;2.13;;;;;;;;;;5015237;28;20080;-64
2023/02/11 03:16:26;;;;;;;6.70;2.10;;;;;;;;;;5048586;28;20547;-63
2023/02/11 03:19:02;;;;;;;9.38;3.10;;;;;;;;;;5015387;28;20064;-64
2023/02/11 03:21:34;;;;;;;7.32;1.90;;;;;;;;;;5048734;28;20505;-64
2023/02/11 03:24:18;;;;;;;28.38;14.93;;;;;;;;;;5048729;28;20120;-63
2023/02/11 03:26:53;;;;;;;9.50;3.55;;;;;;;;;;5048812;28;20057;-64
2023/02/11 03:29:43;;;;;;;10.52;4.28;;;;;;;;;;5048436;28;20432;-64
2023/02/11 03:32:24;;;;;;;7.10;4.18;;;;;;;;;;5032023;28;20511;-64
2023/02/11 03:35:04;;;;;;;7.85;4.05;;;;;;;;;;5088795;28;20048;-64
2023/02/11 03:37:38;;;;;;;7.47;3.85;;;;;;;;;;5072099;28;20090;-64
2023/02/11 03:40:19;;;;;;;7.50;3.70;;;;;;;;;;5091267;28;20044;-63
2023/02/11 03:43:13;;;;;;;6.85;3.38;;;;;;;;;;5088922;28;20040;-64
2023/02/11 03:45:45;;;;;;;5.15;2.80;;;;;;;;;;5028423;28;20057;-64
2023/02/11 03:48:17;;;;;;;;;;;;;;;;;;4996047;28;20064;-64
2023/02/11 03:50:50;;;;;;;5.93;2.03;;;;;;;;;;5028544;28;19921;-64
2023/02/11 03:53:22;;;;;;;8.40;2.78;;;;;;;;;;4995379;28;20056;-64
2023/02/11 03:55:56;;;;;;;8.05;2.70;;;;;;;;;;4995318;28;20405;-63
2023/02/11 03:58:26;;;;;;;6.47;2.58;;;;;;;;;;5008517;28;20046;-64
2023/02/11 04:00:55;;;;;;;7.15;2.13;;;;;;;;;;5008662;28;20053;-64
2023/02/11 04:03:25;;;;;;;6.70;2.38;;;;;;;;;;5008618;28;20046;-63
2023/02/11 04:05:56;;;;;;;4.88;2.42;;;;;;;;;;5008537;28;20049;-64
2023/02/11 04:08:27;;;;;;;5.13;2.63;;;;;;;;;;4992902;28;20090;-64
2023/02/11 04:10:57;;;;;;;6.13;2.45;;;;;;;;;;5008051;28;20057;-64
2023/02/11 04:13:27;;;;;;;5.50;2.95;;;;;;;;;;5008714;28;20042;-64
2023/02/11 04:15:56;;;;;;;8.02;2.38;;;;;;;;;;4975627;28;20061;-64
2023/02/11 04:18:27;;;;;;;4.30;2.38;;;;;;;;;;4989838;28;20521;-63
2023/02/11 04:20:56;;;;;;;6.28;1.98;;;;;;;;;;4992572;28;20551;-64
2023/02/11 04:23:26;;;;;;;5.75;2.08;;;;;;;;;;5004343;28;20057;-64
2023/02/11 04:25:57;;;;;;;5.95;2.17;;;;;;;;;;5011829;28;20086;-64
2023/02/11 04:28:28;;;;;;;6.78;1.80;;;;;;;;;;5011758;28;20469;-64
2023/02/11 04:30:58;;;;;;;4.13;1.92;;;;;;;;;;4979370;28;20085;-64
2023/02/11 04:33:28;;;;;;;5.88;1.95;;;;;;;;;;5011977;28;20386;-64
2023/02/11 04:35:58;;;;;;;5.30;2.08;;;;;;;;;;5004763;28;20050;-64
2023/02/11 04:38:30;;;;;;;6.82;1.92;;;;;;;;;;5031595;28;20518;-64
2023/02/11 04:41:00;;;;;;;6.38;2.00;;;;;;;;;;4972683;28;20073;-64
2023/02/11 04:43:30;;;;;;;5.43;1.88;;;;;;;;;;4933616;29;20054;-64
2023/02/11 04:46:00;;;;;;;5.07;2.28;;;;;;;;;;4950012;28;20056;-64
2023/02/11 04:48:30;;;;;;;7.55;1.95;;;;;;;;;;4934163;29;20056;-64
2023/02/11 04:51:01;;;;;;;7.05;1.83;;;;;;;;;;4934195;29;20054;-64
2023/02/11 04:53:31;;;;;;;8.98;2.03;;;;;;;;;;4902269;29;20066;-64
2023/02/11 04:56:01;;;;;;;6.25;1.90;;;;;;;;;;4895492;29;20091;-64
2023/02/11 04:58:31;;;;;;;5.20;1.73;;;;;;;;;;4953080;28;20055;-65
2023/02/11 05:01:09;;;;;;;10.15;2.22;;;;;;;;;;4953044;28;20059;-64
2023/02/11 05:03:39;;;;;;;;;;;;;;;;;;4985903;28;20494;-64
2023/02/11 05:06:10;;;;;;;6.05;1.75;;;;;;;;;;4979010;28;19921;-65
2023/02/11 05:08:41;;;;;;;8.45;1.80;;;;;;;;;;4962674;28;20481;-65
2023/02/11 05:11:18;;;;;;;5.32;2.50;;;;;;;;;;5011137;28;20072;-64
2023/02/11 05:13:50;;;;;;;6.28;2.10;;;;;;;;;;4963248;28;20069;-65
2023/02/11 05:16:20;;;;;;;8.73;2.03;;;;;;;;;;4962675;28;20065;-65
2023/02/11 05:18:51;;;;;;;5.18;2.00;;;;;;;;;;5045540;28;20060;-65
2023/02/11 05:21:21;;;;;;;6.68;2.55;;;;;;;;;;5058114;28;20059;-65
2023/02/11 05:23:51;;;;;;;8.82;1.83;;;;;;;;;;5074191;28;20056;-65
2023/02/11 05:26:21;;;;;;;6.68;1.90;;;;;;;;;;5074406;28;20056;-65
2023/02/11 05:28:51;;;;;;;6.55;2.08;;;;;;;;;;5056721;28;20044;-64
2023/02/11 05:31:21;;;;;;;9.23;1.95;;;;;;;;;;5092237;28;20047;-65
2023/02/11 05:33:51;;;;;;;4.47;1.80;;;;;;;;;;5073869;28;20510;-65
2023/02/11 05:36:22;;;;;;;3.80;1.75;;;;;;;;;;5074095;28;20052;-65
2023/02/11 05:38:52;;;;;;;6.90;2.00;;;;;;;;;;5092967;28;20507;-65
2023/02/11 05:41:22;;;;;;;3.38;1.67;;;;;;;;;;5074105;28;20056;-65
2023/02/11 05:43:52;;;;;;;4.40;1.95;;;;;;;;;;5092817;28;20055;-65
2023/02/11 05:46:22;;;;;;;5.70;1.90;;;;;;;;;;5093051;28;20052;-65
2023/02/11 05:48:52;;;;;;;4.97;2.47;;;;;;;;;;5056851;28;20495;-65
2023/02/11 05:51:24;;;;;;;7.60;1.88;;;;;;;;;;5073983;28;20056;-65
2023/02/11 05:53:54;;;;;;;5.93;2.20;;;;;;;;;;5058298;28;20056;-65
2023/02/11 05:56:24;;;;;;;6.82;1.98;;;;;;;;;;5092399;28;20051;-65
2023/02/11 05:58:54;;;;;;;4.85;1.48;;;;;;;;;;5092686;28;20054;-65
2023/02/11 06:01:24;;;;;;;8.20;2.03;;;;;;;;;;5069624;28;20040;-65
2023/02/11 06:03:54;;;;;;;10.10;2.35;;;;;;;;;;5036124;28;20147;-65
2023/02/11 06:06:24;;;;;;;9.95;1.85;;;;;;;;;;5036329;28;20060;-65
2023/02/11 06:08:55;;;;;;;3.78;1.73;;;;;;;;;;5035967;28;20045;-65
2023/02/11 06:11:25;;;;;;;7.82;2.00;;;;;;;;;;5069620;28;20072;-65
2023/02/11 06:13:55;;;;;;;6.93;1.80;;;;;;;;;;5069647;28;20048;-65
2023/02/11 06:16:25;;;;;;;8.38;1.77;;;;;;;;;;5069626;28;20472;-65
2023/02/11 06:18:55;;;;;;;4.72;1.90;;;;;;;;;;5036048;28;20049;-65
2023/02/11 06:21:25;;;;;;;8.15;2.20;;;;;;;;;;5019359;28;20060;-65
2023/02/11 06:24:12;;;;;;;6.07;2.08;;;;;;;;;;5069266;28;20081;-65
2023/02/11 06:26:42;;;;;;;7.47;1.88;;;;;;;;;;5069424;28;20055;-64
2023/02/11 06:29:12;;;;;;;4.97;2.20;;;;;;;;;;5035581;28;20428;-65
2023/02/11 06:31:42;;;;;;;3.25;1.63;;;;;;;;;;5055953;28;20059;-65
2023/02/11 06:34:13;;;;;;;5.50;1.92;;;;;;;;;;5091735;28;20484;-65
2023/02/11 06:36:44;;;;;;;7.43;2.58;;;;;;;;;;5091880;28;20047;-65
2023/02/11 06:39:14;;;;;;;13.07;2.63;;;;;;;;;;5091894;28;20434;-65
2023/02/11 06:41:44;;;;;;;6.95;2.30;;;;;;;;;;5091567;28;20048;-65
2023/02/11 06:44:14;;;;;;;7.15;2.40;;;;;;;;;;5091659;28;20048;-64
2023/02/11 06:46:44;;;;;;;4.18;2.15;;;;;;;;;;5090798;28;20055;-65
2023/02/11 06:49:14;;;;;;;4.78;2.65;;;;;;;;;;5072651;28;20055;-65
2023/02/11 06:51:44;;;;;;;5.95;2.58;;;;;;;;;;5072803;28;20052;-64
2023/02/11 06:54:14;;;;;;;6.32;2.53;;;;;;;;;;5072582;28;20048;-64
2023/02/11 06:56:44;;;;;;;7.18;2.60;;;;;;;;;;5055906;28;20532;-64
2023/02/11 06:59:22;;;;;;;7.65;2.20;;;;;;;;;;5072513;28;20060;-64
2023/02/11 07:01:52;;;;;;;5.22;2.00;;;;;;;;;;5091676;28;20032;-65
2023/02/11 07:04:22;;;;;;;5.47;2.08;;;;;;;;;;5091460;28;20036;-64
2023/02/11 07:06:52;;;;;;;3.97;2.00;;;;;;;;;;5090251;28;20044;-65
2023/02/11 07:09:22;;;;;;;6.53;1.90;;;;;;;;;;5052164;28;20056;-64
2023/02/11 07:11:52;;;;;;;4.03;1.95;;;;;;;;;;5069002;28;20053;-64
2023/02/11 07:14:22;;;;;;;6.20;2.22;;;;;;;;;;4996225;28;20092;-65
2023/02/11 07:16:52;;;;;;;7.13;2.50;;;;;;;;;;5028749;28;20064;-64
2023/02/11 07:19:23;;;;;;;7.60;3.00;;;;;;;;;;5029007;28;20053;-64
2023/02/11 07:21:54;;;;;;;9.43;2.80;;;;;;;;;;5028640;28;20073;-64
2023/02/11 07:24:24;;;;;;;5.57;2.38;;;;;;;;;;5028709;28;20045;-64
2023/02/11 07:26:53;;;;;;;9.00;2.50;;;;;;;;;;4996528;28;20564;-64
2023/02/11 07:29:23;;;;;;;6.35;2.28;;;;;;;;;;5008804;28;20054;-64
2023/02/11 07:31:53;;;;;;;7.38;2.60;;;;;;;;;;5008702;28;20054;-65
2023/02/11 07:34:24;;;;;;;6.25;2.22;;;;;;;;;;5008837;28;20054;-64
2023/02/11 07:36:54;;;;;;;4.72;1.77;;;;;;;;;;5008765;28;20049;-64
2023/02/11 07:39:26;;;;;;;4.10;2.13;;;;;;;;;;5008643;28;20058;-64
2023/02/11 07:41:56;;;;;;;8.75;2.03;;;;;;;;;;5008698;28;20414;-64
2023/02/11 07:44:27;;;;;;;7.32;1.92;;;;;;;;;;4969612;28;20400;-64
2023/02/11 07:46:57;;;;;;;5.60;2.08;;;;;;;;;;4988235;28;20069;-64
2023/02/11 07:49:27;;;;;;;6.18;1.80;;;;;;;;;;4992199;28;20502;-65
2023/02/11 07:51:57;;;;;;;6.00;1.67;;;;;;;;;;5008647;28;20062;-65
2023/02/11 07:54:27;;;;;;;4.63;1.90;;;;;;;;;;4979114;28;20057;-64
2023/02/11 07:56:57;;;;;;;4.15;2.00;;;;;;;;;;5012243;28;20061;-65
2023/02/11 07:59:27;;;;;;;4.80;1.95;;;;;;;;;;5014982;28;20046;-65
2023/02/11 08:01:58;;;;;;;7.38;2.08;;;;;;;;;;5052081;28;20057;-64
2023/02/11 08:04:27;;;;;;;5.15;1.83;;;;;;;;;;5035715;28;20056;-64
2023/02/11 08:06:59;;;;;;;4.72;1.60;;;;;;;;;;5052064;28;20049;-64
2023/02/11 08:09:28;;;;;;;5.30;2.08;;;;;;;;;;5052265;28;20512;-64
2023/02/11 08:12:03;;;;;;;6.05;1.77;;;;;;;;;;5018492;28;20045;-64
2023/02/11 08:14:33;;;;;;;3.60;1.70;;;;;;;;;;5002112;28;20060;-65
2023/02/11 08:17:03;;;;;;;4.10;1.67;;;;;;;;;;5051757;28;20052;-65
2023/02/11 08:19:33;;;;;;;5.00;1.70;;;;;;;;;;5035449;28;20416;-64
2023/02/11 08:22:03;;;;;;;5.25;2.03;;;;;;;;;;5071293;28;20052;-65
2023/02/11 08:24:34;;;;;;;9.10;2.03;;;;;;;;;;5010687;28;20048;-64
2023/02/11 08:27:04;;;;;;;7.75;2.03;;;;;;;;;;5092072;28;20047;-64
2023/02/11 08:29:33;;;;;;;5.82;2.08;;;;;;;;;;5091859;28;20052;-64
2023/02/11 08:32:03;;;;;;;6.50;2.25;;;;;;;;;;5075023;28;20123;-65
2023/02/11 08:34:33;;;;;;;6.93;2.10;;;;;;;;;;5092074;28;20419;-65
2023/02/11 08:37:03;;;;;;;4.60;1.92;;;;;;;;;;5081314;28;20059;-65
2023/02/11 08:39:34;;;;;;;11.73;2.28;;;;;;;;;;5026740;28;20052;-65
2023/02/11 08:42:04;;;;;;;7.07;2.08;;;;;;;;;;5094331;28;20047;-65
2023/02/11 08:44:34;;;;;;;8.27;2.03;;;;;;;;;;5094112;28;20051;-64
2023/02/11 08:47:04;;;;;;;9.90;2.38;;;;;;;;;;5093893;28;20400;-64
2023/02/11 08:49:35;;;;;;;8.35;2.30;;;;;;;;;;5074997;28;20059;-65
2023/02/11 08:52:05;;;;;;;5.40;1.63;;;;;;;;;;5093963;28;20051;-65
2023/02/11 08:54:36;;;;;;;6.93;2.15;;;;;;;;;;5093760;28;20058;-65
2023/02/11 08:57:06;;;;;;;4.75;1.92;;;;;;;;;;5074589;28;20518;-65
2023/02/11 08:59:38;;;;;;;11.60;2.05;;;;;;;;;;5093833;28;20043;-64
2023/02/11 09:02:13;;;;;;;4.40;1.95;;;;;;;;;;5091247;28;20066;-65
2023/02/11 09:04:43;;;;;;;9.13;2.03;;;;;;;;;;5074224;28;20055;-64
2023/02/11 09:07:13;;;;;;;4.72;1.83;;;;;;;;;;5093760;28;20400;-65
2023/02/11 09:09:43;;;;;;;6.68;1.83;;;;;;;;;;5093693;28;20044;-65
2023/02/11 09:12:13;;;;;;;6.60;2.17;;;;;;;;;;5093311;28;20044;-65
2023/02/11 09:14:43;;;;;;;5.68;1.80;;;;;;;;;;5093636;28;20051;-65
2023/02/11 09:17:13;;;;;;;5.22;1.98;;;;;;;;;;5093619;28;20040;-65
2023/02/11 09:19:44;;;;;;;5.45;2.38;;;;;;;;;;5093341;28;20052;-65
2023/02/11 09:22:15;;;;;;;5.07;1.75;;;;;;;;;;5093376;28;20510;-65
2023/02/11 09:24:45;;;;;;;5.32;2.20;;;;;;;;;;5093262;28;20071;-65
2023/02/11 09:27:15;;;;;;;4.93;1.90;;;;;;;;;;5093387;28;20051;-65
2023/02/11 09:29:45;;;;;;;5.28;1.90;;;;;;;;;;5090857;28;20048;-64
2023/02/11 09:32:17;;;;;;;7.35;2.35;;;;;;;;;;5093302;28;20043;-65
2023/02/11 09:34:47;;;;;;;7.28;1.88;;;;;;;;;;5093010;28;20036;-64
2023/02/11 09:37:17;;;;;;;5.65;2.00;;;;;;;;;;5092706;28;20044;-65
2023/02/11 09:39:47;;;;;;;4.57;1.85;;;;;;;;;;5093075;28;20499;-65
2023/02/11 09:42:41;;;;;;;9.27;2.30;;;;;;;;;;5093252;28;20053;-65
2023/02/11 09:45:27;;;;;;;5.30;2.13;;;;;;;;;;5092907;28;20530;-65
2023/02/11 09:48:21;;;;;;;5.35;2.75;;;;;;;;;;5092584;28;20395;-65
2023/02/11 09:50:59;;;;;;;8.15;2.03;;;;;;;;;;5073894;28;20499;-65
2023/02/11 09:53:36;;;;;;;6.90;2.10;;;;;;;;;;5073905;28;20067;-65
2023/02/11 09:56:13;;;;;;;5.60;2.33;;;;;;;;;;5092642;28;20508;-65
2023/02/11 09:58:44;;;;;;;5.25;2.20;;;;;;;;;;5073509;28;20059;-65
2023/02/11 10:01:15;;;;;;;4.82;2.13;;;;;;;;;;5092470;28;20055;-66
2023/02/11 10:03:54;;;;;;;7.32;2.45;;;;;;;;;;5090336;28;20060;-65
2023/02/11 10:06:44;;;;;;;;;;;;;;;;;;5073689;28;21219;-65
2023/02/11 10:09:23;;;;;;;8.25;2.58;;;;;;;;;;5056726;28;19920;-65
2023/02/11 10:12:08;;;;;;;10.60;2.70;;;;;;;;;;5073066;28;20419;-65
2023/02/11 10:15:05;;;;;;;9.23;2.42;;;;;;;;;;5092016;28;20048;-66
2023/02/11 10:18:02;;;;;;;6.82;2.13;;;;;;;;;;5039144;28;20491;-65
2023/02/11 10:20:37;;;;;;;7.32;2.45;;;;;;;;;;5089987;28;20060;-65
2023/02/11 10:23:15;;;;;;;8.45;2.72;;;;;;;;;;5091660;28;20044;-65
2023/02/11 10:25:53;;;;;;;6.47;2.53;;;;;;;;;;5092357;28;20040;-65
2023/02/11 10:28:32;;;;;;;7.63;2.60;;;;;;;;;;5025961;28;20070;-65
2023/02/11 10:31:23;;;;;;;7.53;3.20;;;;;;;;;;5091896;28;20047;-65
2023/02/11 10:34:02;;;;;;;7.45;3.83;;;;;;;;;;5068802;28;20063;-65
2023/02/11 10:36:39;;;;;;;6.55;3.30;;;;;;;;;;5052147;28;20057;-65
2023/02/11 10:39:20;;;;;;;12.80;3.40;;;;;;;;;;5069061;28;20060;-65
2023/02/11 10:41:58;;;;;;;8.30;3.25;;;;;;;;;;5068917;28;20068;-65
2023/02/11 10:44:38;;;;;;;6.45;2.70;;;;;;;;;;5019369;28;20067;-65
2023/02/11 10:47:18;;;;;;;4.30;2.28;;;;;;;;;;5068786;28;20044;-66
2023/02/11 10:49:48;;;;;;;7.45;2.72;;;;;;;;;;5069079;28;20056;-65
2023/02/11 10:52:27;;;;;;;10.38;3.15;;;;;;;;;;5069156;28;20056;-65
2023/02/11 10:55:09;;;;;;;8.60;3.10;;;;;;;;;;5028937;28;20053;-65
2023/02/11 10:57:53;;;;;;;8.27;2.65;;;;;;;;;;5008895;28;20060;-66
2023/02/11 11:00:37;;;;;;;6.60;2.40;;;;;;;;;;5008856;28;20069;-65
2023/02/11 11:03:18;;;;;;;5.53;2.42;;;;;;;;;;4961323;28;20064;-66
2023/02/11 11:05:50;;;;;;;4.47;2.47;;;;;;;;;;4960601;28;20062;-66
2023/02/11 11:08:20;;;;;;;10.90;2.80;;;;;;;;;;4969793;28;20051;-66
2023/02/11 11:11:07;;;;;;;7.38;2.63;;;;;;;;;;4942699;28;20061;-66
2023/02/11 11:13:39;;;;;;;6.70;2.40;;;;;;;;;;4989468;28;20420;-66
2023/02/11 11:16:11;;;;;;;5.72;2.85;;;;;;;;;;4989361;28;20746;-66
2023/02/11 11:18:44;;;;;;;8.43;2.65;;;;;;;;;;4989061;28;20061;-66
2023/02/11 11:21:25;;;;;;;5.90;2.72;;;;;;;;;;4972812;28;20494;-65
2023/02/11 11:23:59;;;;;;;8.27;3.65;;;;;;;;;;4989100;28;20522;-65
2023/02/11 11:26:44;;;;;;;6.32;3.67;;;;;;;;;;4956896;28;20534;-65
2023/02/11 11:29:19;;;;;;;8.60;3.50;;;;;;;;;;4993074;28;20062;-65
2023/02/11 11:31:52;;;;;;;7.80;4.35;;;;;;;;;;4999764;28;20425;-66
2023/02/11 11:34:31;;;;;;;8.82;4.15;;;;;;;;;;5037081;28;20042;-66
2023/02/11 11:37:20;;;;;;;32.65;15.93;;;;;;;;;;5022295;28;20044;-66
2023/02/11 11:40:01;;;;;;;20.23;10.27;;;;;;;;;;5072222;28;20048;-65
2023/02/11 11:42:35;;;;;;;51.15;22.45;;;;;;;;;;5039320;28;20064;-66
2023/02/11 11:45:23;;;;;;;28.20;11.57;;;;;;;;;;5058462;28;20048;-66
2023/02/11 11:47:59;;;;;;;50.05;24.80;;;;;;;;;;5059462;28;20080;-66
2023/02/11 11:50:43;;;;;;;16.20;7.38;;;;;;;;;;5094736;28;20044;-66
2023/02/11 11:53:33;;;;;;;4.45;2.28;;;;;;;;;;5094824;28;20048;-66
2023/02/11 11:56:28;;;;;;;17.63;8.85;;;;;;;;;;5094736;28;20051;-66
2023/02/11 11:59:02;;;;;;;5.32;3.13;;;;;;;;;;5048682;28;20063;-66
2023/02/11 12:01:38;;;;;;;7.78;2.53;;;;;;;;;;5059365;28;20507;-66
2023/02/11 12:04:22;;;;;;;7.75;4.35;;;;;;;;;;5094824;28;20055;-66
2023/02/11 12:07:22;;;;;;;6.88;4.40;;;;;;;;;;5094718;28;20044;-67
2023/02/11 12:10:22;;;;;;;9.88;4.63;;;;;;;;;;5094806;28;20043;-66
2023/02/11 12:12:52;;;;;;;13.30;5.45;;;;;;;;;;5094660;28;20044;-66
2023/02/11 12:15:28;;;;;;;22.20;8.82;;;;;;;;;;5075459;28;20051;-66
2023/02/11 12:18:11;;;;;;;4.72;2.30;;;;;;;;;;5010201;28;20518;-67
2023/02/11 12:21:06;;;;;;;6.20;3.03;;;;;;;;;;5094779;28;20543;-64
2023/02/11 12:24:03;;;;;;;5.35;2.40;;;;;;;;;;5075230;28;20048;-63
2023/02/11 12:26:44;;;;;;;5.28;2.30;;;;;;;;;;5094626;28;20048;-63
2023/02/11 12:29:30;;;;;;;4.20;1.60;;;;;;;;;;5097420;28;20449;-63
2023/02/11 12:32:25;;;;;;;3.92;1.90;;;;;;;;;;5072247;28;20059;-64
2023/02/11 12:35:08;;;;;;;3.90;2.10;;;;;;;;;;5101453;28;20055;-64
2023/02/11 12:38:09;;;;;;;9.48;6.07;;;;;;;;;;5074853;28;20403;-64
2023/02/11 12:41:14;;;;;;;4.90;3.08;;;;;;;;;;5110812;27;20050;-65
2023/02/11 12:43:44;;;;;;;4.70;2.10;;;;;;;;;;5019565;28;20056;-65
2023/02/11 12:46:39;;;;;;;3.65;2.00;;;;;;;;;;4996539;28;20064;-67
2023/02/11 12:49:48;;;;;;;1.98;1.02;;;;;;;;;;5001384;28;20056;-67
2023/02/11 12:52:34;;;;;;;2.22;1.13;;;;;;;;;;4889932;29;20047;-65
2023/02/11 12:55:35;;;;;;;2.15;1.05;;;;;;;;;;4905876;29;20055;-67
2023/02/11 12:58:19;;;;;;;2.35;1.23;;;;;;;;;;4923935;29;20052;-66
2023/02/11 13:01:03;;;;;;;2.30;1.17;;;;;;;;;;4912668;29;20068;-66
2023/02/11 13:03:48;;;;;;;3.08;1.60;;;;;;;;;;4908866;29;20056;-65
2023/02/11 13:06:23;;;;;;;3.38;1.95;;;;;;;;;;4913358;29;20052;-65
2023/02/11 13:08:59;;;;;;;3.25;1.50;;;;;;;;;;4911806;29;20053;-65
2023/02/11 13:11:39;;;;;;;3.00;1.70;;;;;;;;;;4895499;29;20071;-66
2023/02/11 13:14:16;;;;;;;4.70;1.38;;;;;;;;;;4944571;29;20040;-66
2023/02/11 13:16:50;;;;;;;1.73;1.10;;;;;;;;;;4911832;29;20056;-66
2023/02/11 13:19:26;;;;;;;2.22;1.13;;;;;;;;;;4913849;29;20405;-66
2023/02/11 13:22:08;;;;;;;2.88;1.33;;;;;;;;;;4949779;28;20067;-69
2023/02/11 13:24:58;;;;;;;2.20;1.10;;;;;;;;;;4951553;28;20051;-66
2023/02/11 13:27:49;;;;;;;2.10;1.02;;;;;;;;;;4902322;29;20059;-66
2023/02/11 13:30:33;;;;;;;4.00;1.25;;;;;;;;;;4994939;28;20464;-67
2023/02/11 13:33:19;;;;;;;2.10;1.10;;;;;;;;;;4978636;28;20065;-66
2023/02/11 13:35:57;;;;;;;3.95;1.25;;;;;;;;;;4970782;28;20062;-67
2023/02/11 13:38:31;;;;;;;3.05;1.10;;;;;;;;;;4978666;28;20051;-66
2023/02/11 13:41:27;;;;;;;2.88;1.05;;;;;;;;;;4982766;28;20047;-66
2023/02/11 13:43:59;;;;;;;2.30;1.13;;;;;;;;;;4985170;28;20066;-65
2023/02/11 13:46:54;;;;;;;1.85;0.90;;;;;;;;;;4978053;28;20059;-67
2023/02/11 13:49:34;;;;;;;13.80;9.00;;;;;;;;;;4952267;28;20058;-67
2023/02/11 13:52:26;;;;;;;3.85;2.28;;;;;;;;;;4980571;28;20058;-67
2023/02/11 13:55:05;;;;;;;3.58;1.20;;;;;;;;;;4930002;29;20067;-67
2023/02/11 13:57:38;;;;;;;8.20;4.88;;;;;;;;;;4929026;29;20591;-68
2023/02/11 14:00:29;;;;;;;3.28;1.95;;;;;;;;;;4932862;29;20059;-69
2023/02/11 14:09:08;;;;;;;3.67;1.40;;;;;;;;;;4887571;29;20551;-67
2023/02/11 14:11:43;;;;;;;2.17;1.15;;;;;;;;;;4933276;29;20066;-68
2023/02/11 14:14:30;;;;;;;2.08;1.00;;;;;;;;;;4944433;28;20510;-68
2023/02/11 14:17:06;;;;;;;2.25;1.17;;;;;;;;;;4947121;28;20055;-68
2023/02/11 14:19:48;;;;;;;2.28;1.15;;;;;;;;;;4949582;28;20055;-68
2023/02/11 14:22:26;;;;;;;2.83;1.70;;;;;;;;;;4951541;28;20059;-71
2023/02/11 14:24:59;;;;;;;2.30;1.42;;;;;;;;;;4937408;28;20062;-69
2023/02/11 14:27:39;;;;;;;3.65;1.30;;;;;;;;;;4952762;28;20047;-69
2023/02/11 14:30:51;;;;;;;3.58;1.30;;;;;;;;;;4960041;28;20567;-69
2023/02/11 14:33:24;;;;;;;3.78;1.70;;;;;;;;;;4984371;28;20054;-68
2023/02/11 14:36:26;;;;;;;2.17;1.10;;;;;;;;;;4949434;28;20054;-70
2023/02/11 14:39:14;;;;;;;2.97;1.10;;;;;;;;;;5024038;28;20061;-70
2023/02/11 14:41:49;;;;;;;4.95;1.30;;;;;;;;;;5030439;28;20037;-70
2023/02/11 14:44:32;;;;;;;2.53;1.40;;;;;;;;;;5111669;27;20414;-69
2023/02/11 14:47:02;;;;;;;4.55;1.20;;;;;;;;;;5106646;28;20051;-68
2023/02/11 14:49:36;;;;;;;2.25;1.35;;;;;;;;;;5099567;28;20043;-69
2023/02/11 14:52:25;;;;;;;2.10;1.50;;;;;;;;;;5088265;28;20044;-68
2023/02/11 14:55:24;;;;;;;2.67;1.40;;;;;;;;;;5067578;28;20052;-69
2023/02/11 14:58:18;;;;;;;2.50;1.20;;;;;;;;;;5092422;28;20550;-68
2023/02/11 15:01:09;;;;;;;1.95;0.95;;;;;;;;;;5108313;27;20036;-69
2023/02/11 15:03:42;;;;;;;3.63;1.50;;;;;;;;;;4957478;28;20046;-70
2023/02/11 15:06:28;;;;;;;2.45;0.90;;;;;;;;;;4974841;28;20053;-67
2023/02/11 15:09:03;;;;;;;1.73;1.13;;;;;;;;;;4977699;28;20050;-68
2023/02/11 15:11:39;;;;;;;6.03;1.17;;;;;;;;;;5009083;28;20042;-68
2023/02/11 15:14:23;;;;;;;2.22;1.30;;;;;;;;;;4960633;28;20065;-69
2023/02/11 15:16:57;;;;;;;4.60;1.25;;;;;;;;;;5010680;28;20045;-67
2023/02/11 15:19:39;;;;;;;2.33;1.42;;;;;;;;;;4983202;28;20125;-68
2023/02/11 15:22:27;;;;;;;3.08;1.65;;;;;;;;;;4966580;28;20409;-69
2023/02/11 15:25:13;;;;;;;1.83;1.05;;;;;;;;;;5010417;28;20057;-69
2023/02/11 15:27:47;;;;;;;1.90;1.25;;;;;;;;;;5012143;28;20054;-66
2023/02/11 15:30:24;;;;;;;3.17;0.90;;;;;;;;;;4996545;28;20065;-65
2023/02/11 15:32:58;;;;;;;2.17;1.10;;;;;;;;;;4974806;28;20050;-66
2023/02/11 15:35:35;;;;;;;4.90;1.27;;;;;;;;;;4975277;28;20537;-66
2023/02/11 15:38:06;;;;;;;3.63;1.52;;;;;;;;;;4933567;28;20054;-69
2023/02/11 15:40:37;;;;;;;2.05;0.90;;;;;;;;;;4985063;28;20061;-68
2023/02/11 15:43:09;;;;;;;3.83;1.20;;;;;;;;;;5038645;28;20045;-69
2023/02/11 15:45:53;;;;;;;1.95;1.27;;;;;;;;;;5042880;28;20052;-69
2023/02/11 15:48:33;;;;;;;1.83;1.10;;;;;;;;;;5008476;28;20037;-68